createdAt,value
2023-04-17T00:02:00.562Z,100224.38
2023-04-17T00:04:27.520Z,100218.53
2023-04-17T00:06:54.472Z,100222.19
2023-04-17T00:09:21.905Z,100224.81
2023-04-17T00:11:49.077Z,100221.59
2023-04-17T00:14:16.235Z,100222.56
2023-04-17T00:16:43.452Z,100227.81
2023-04-17T00:19:11.179Z,100235.03
2023-04-17T00:21:38.363Z,100231.31
2023-04-17T00:24:05.456Z,100230.63
2023-04-17T00:26:34.660Z,100229.13
2023-04-17T00:29:02.049Z,100220.44
2023-04-17T00:31:31.610Z,100225.75
2023-04-17T00:33:59.042Z,100228.38
2023-04-17T00:36:27.363Z,100221.16
2023-04-17T00:38:54.744Z,100219.38
2023-04-17T00:41:22.362Z,100226.31
2023-04-17T00:43:49.187Z,100216.63
2023-04-17T00:46:16.649Z,100215.97
2023-04-17T00:48:44.609Z,100217.56
2023-04-17T00:51:12.127Z,100223.81
2023-04-17T00:53:39.671Z,100219.44
2023-04-17T00:56:07.437Z,100211.66
2023-04-17T00:58:37.569Z,100213.16
2023-04-17T01:01:06.464Z,100214.16
2023-04-17T01:03:34.521Z,100211.31
2023-04-17T01:06:02.306Z,100216.53
2023-04-17T01:08:38.498Z,100209.22
2023-04-17T01:11:05.966Z,100213.41
2023-04-17T01:13:33.024Z,100210.91
2023-04-17T01:16:00.175Z,100212.72
2023-04-17T01:18:27.661Z,100205.50
2023-04-17T01:20:54.622Z,100215.34
2023-04-17T01:23:21.928Z,100214.44
2023-04-17T01:25:51.253Z,100220.44
2023-04-17T01:28:18.689Z,100212.31
2023-04-17T01:30:46.735Z,100211.59
2023-04-17T01:33:14.325Z,100217.53
2023-04-17T01:35:41.627Z,100222.59
2023-04-17T01:38:08.961Z,100219.09
2023-04-17T01:40:39.045Z,100222.75
2023-04-17T01:43:06.962Z,100214.84
2023-04-17T01:45:34.182Z,100213.88
2023-04-17T01:48:01.672Z,100212.00
2023-04-17T01:50:28.780Z,100216.34
2023-04-17T01:52:56.204Z,100213.69
2023-04-17T01:55:23.602Z,100214.34
2023-04-17T01:57:51.952Z,100214.34
2023-04-17T02:00:19.747Z,100206.56
2023-04-17T02:02:47.069Z,100211.69
2023-04-17T02:05:14.096Z,100209.91
2023-04-17T02:07:40.874Z,100215.91
2023-04-17T02:10:08.453Z,100214.81
2023-04-17T02:12:36.831Z,100222.72
2023-04-17T02:15:04.263Z,100214.00
2023-04-17T02:17:31.575Z,100214.81
2023-04-17T02:19:58.450Z,100214.72
2023-04-17T02:22:25.803Z,100211.16
2023-04-17T02:24:53.023Z,100212.81
2023-04-17T02:27:20.656Z,100206.75
2023-04-17T02:29:47.934Z,100217.38
2023-04-17T02:32:17.423Z,100214.69
2023-04-17T02:34:45.688Z,100221.63
2023-04-17T02:37:15.545Z,100217.25
2023-04-17T02:39:42.736Z,100213.78
2023-04-17T02:42:13.096Z,100217.28
2023-04-17T02:44:42.172Z,100217.19
2023-04-17T02:47:09.602Z,100226.09
2023-04-17T02:49:36.969Z,100219.88
2023-04-17T02:52:04.653Z,100224.38
2023-04-17T02:54:32.379Z,100219.94
2023-04-17T02:57:02.091Z,100225.94
2023-04-17T02:59:29.957Z,100237.16
2023-04-17T03:02:01.073Z,100224.03
2023-04-17T03:04:30.581Z,100229.38
2023-04-17T03:06:59.633Z,100232.91
2023-04-17T03:09:27.814Z,100232.31
2023-04-17T03:11:54.919Z,100237.34
2023-04-17T03:14:22.335Z,100233.03
2023-04-17T03:16:50.241Z,100232.06
2023-04-17T03:19:17.750Z,100235.75
2023-04-17T03:21:44.675Z,100243.59
2023-04-17T03:24:13.399Z,100240.09
2023-04-17T03:26:41.656Z,100241.91
2023-04-17T03:29:16.287Z,100243.63
2023-04-17T03:31:46.575Z,100241.84
2023-04-17T03:34:14.436Z,100245.44
2023-04-17T03:36:42.580Z,100238.41
2023-04-17T03:39:11.510Z,100243.94
2023-04-17T03:41:39.146Z,100244.75
2023-04-17T03:44:06.978Z,100247.19
2023-04-17T03:46:37.854Z,100248.06
2023-04-17T03:49:07.164Z,100248.03
2023-04-17T03:51:34.437Z,100248.88
2023-04-17T03:54:10.993Z,100247.06
2023-04-17T03:56:39.952Z,100257.63
2023-04-17T03:59:08.281Z,100250.28
2023-04-17T04:01:44.717Z,100253.72
2023-04-17T04:04:18.805Z,100263.28
2023-04-17T04:06:50.321Z,100265.84
2023-04-17T04:09:20.823Z,100267.34
2023-04-17T04:11:48.538Z,100268.97
2023-04-17T04:14:16.079Z,100273.03
2023-04-17T04:16:46.650Z,100276.22
2023-04-17T04:19:16.071Z,100283.09
2023-04-17T04:21:45.634Z,100285.72
2023-04-17T04:24:14.846Z,100288.31
2023-04-17T04:26:43.552Z,100282.75
2023-04-17T04:29:14.364Z,100283.75
2023-04-17T04:32:04.773Z,100288.28
2023-04-17T04:34:38.361Z,100286.19
2023-04-17T04:37:05.566Z,100287.16
2023-04-17T04:39:38.448Z,100280.72
2023-04-17T04:42:10.500Z,100281.69
2023-04-17T04:44:54.920Z,100283.31
2023-04-17T04:47:25.791Z,100282.38
2023-04-17T04:49:55.021Z,100281.81
2023-04-17T04:52:23.348Z,100287.41
2023-04-17T04:54:54.610Z,100278.03
2023-04-17T04:57:22.665Z,100279.31
2023-04-17T04:59:54.280Z,100283.00
2023-04-17T05:02:37.347Z,100285.97
2023-04-17T05:05:09.990Z,100283.91
2023-04-17T05:07:43.902Z,100277.31
2023-04-17T05:10:14.611Z,100289.22
2023-04-17T05:12:47.976Z,100288.16
2023-04-17T05:15:16.802Z,100288.00
2023-04-17T05:17:45.128Z,100290.53
2023-04-17T05:20:15.297Z,100293.13
2023-04-17T05:22:53.316Z,100295.41
2023-04-17T05:25:22.811Z,100297.31
2023-04-17T05:27:51.040Z,100301.91
2023-04-17T05:30:19.208Z,100302.19
2023-04-17T05:32:52.054Z,100305.16
2023-04-17T05:35:54.093Z,100310.16
2023-04-17T05:38:24.874Z,100322.84
2023-04-17T05:40:54.171Z,100325.41
2023-04-17T05:43:21.780Z,100323.84
2023-04-17T05:45:49.461Z,100320.34
2023-04-17T05:48:17.077Z,100322.09
2023-04-17T05:50:45.780Z,100318.69
2023-04-17T05:53:12.796Z,100325.69
2023-04-17T05:55:48.324Z,100328.34
2023-04-17T06:00:48.332Z,100323.03
2023-04-17T06:03:19.521Z,100319.66
2023-04-17T06:05:53.808Z,100323.81
2023-04-17T06:08:21.915Z,100337.97
2023-04-17T06:10:50.546Z,100332.72
2023-04-17T06:13:19.024Z,100337.97
2023-04-17T06:15:50.907Z,100341.53
2023-04-17T06:18:19.004Z,100338.91
2023-04-17T06:20:46.964Z,100344.31
2023-04-17T06:23:14.777Z,100343.38
2023-04-17T06:25:43.062Z,100349.47
2023-04-17T06:28:13.076Z,100338.81
2023-04-17T06:30:41.018Z,100341.28
2023-04-17T06:33:09.355Z,100338.53
2023-04-17T06:35:38.017Z,100341.88
2023-04-17T06:38:26.246Z,100338.25
2023-04-17T06:40:53.649Z,100337.22
2023-04-17T06:43:21.524Z,100340.75
2023-04-17T06:45:49.667Z,100340.53
2023-04-17T06:48:17.008Z,100339.56
2023-04-17T06:50:44.129Z,100338.41
2023-04-17T06:53:13.334Z,100340.84
2023-04-17T06:55:40.797Z,100347.78
2023-04-17T06:58:09.065Z,100348.38
2023-04-17T07:00:36.911Z,100353.41
2023-04-17T07:03:03.970Z,100350.41
2023-04-17T07:05:31.791Z,100353.53
2023-04-17T07:07:59.279Z,100351.44
2023-04-17T07:10:29.045Z,100356.16
2023-04-17T07:12:56.232Z,100347.75
2023-04-17T07:15:24.345Z,100347.25
2023-04-17T07:17:52.118Z,100346.06
2023-04-17T07:20:21.755Z,100347.47
2023-04-17T07:23:08.386Z,100340.72
2023-04-17T07:25:36.442Z,100342.78
2023-04-17T07:28:05.528Z,100348.53
2023-04-17T07:30:33.980Z,100338.41
2023-04-17T07:33:02.488Z,100336.78
2023-04-17T07:35:30.024Z,100342.91
2023-04-17T07:37:59.373Z,100343.56
2023-04-17T07:40:27.585Z,100341.03
2023-04-17T07:42:56.413Z,100341.47
2023-04-17T07:45:23.933Z,100339.75
2023-04-17T07:47:53.843Z,100332.56
2023-04-17T07:50:24.282Z,100334.47
2023-04-17T07:52:51.494Z,100326.41
2023-04-17T07:55:18.579Z,100329.84
2023-04-17T07:57:48.230Z,100328.38
2023-04-17T08:00:17.126Z,100331.69
2023-04-17T08:02:44.509Z,100321.34
2023-04-17T08:05:12.350Z,100328.34
2023-04-17T08:07:44.808Z,100324.31
2023-04-17T08:10:12.505Z,100316.94
2023-04-17T08:12:40.824Z,100324.41
2023-04-17T08:15:08.968Z,100318.34
2023-04-17T08:17:36.332Z,100317.28
2023-04-17T08:20:11.063Z,100315.72
2023-04-17T08:22:43.067Z,100314.91
2023-04-17T08:25:11.410Z,100317.94
2023-04-17T08:27:41.272Z,100318.00
2023-04-17T08:30:13.318Z,100310.94
2023-04-17T08:32:45.418Z,100312.63
2023-04-17T08:35:15.285Z,100318.69
2023-04-17T08:37:44.746Z,100318.78
2023-04-17T08:40:14.007Z,100312.22
2023-04-17T08:42:43.543Z,100313.81
2023-04-17T08:45:13.841Z,100318.66
2023-04-17T08:47:42.689Z,100311.34
2023-04-17T08:50:17.905Z,100307.25
2023-04-17T08:52:50.820Z,100302.72
2023-04-17T08:55:24.322Z,100311.25
2023-04-17T08:57:58.975Z,100306.50
2023-04-17T09:00:34.542Z,100304.06
2023-04-17T09:03:05.320Z,100303.88
2023-04-17T09:05:37.305Z,100298.41
2023-04-17T09:08:18.324Z,100301.91
2023-04-17T09:10:50.446Z,100302.13
2023-04-17T09:13:19.638Z,100301.53
2023-04-17T09:16:03.381Z,100297.59
2023-04-17T09:18:32.329Z,100294.78
2023-04-17T09:21:01.465Z,100296.75
2023-04-17T09:23:30.506Z,100292.88
2023-04-17T09:26:10.653Z,100288.81
2023-04-17T09:28:41.767Z,100283.16
2023-04-17T09:31:18.030Z,100283.59
2023-04-17T09:34:06.179Z,100287.13
2023-04-17T09:36:38.648Z,100286.16
2023-04-17T09:39:16.566Z,100286.31
2023-04-17T09:41:44.235Z,100296.25
2023-04-17T09:44:12.686Z,100283.19
2023-04-17T09:46:46.037Z,100290.56
2023-04-17T09:49:16.638Z,100290.16
2023-04-17T09:51:45.880Z,100285.03
2023-04-17T09:54:16.675Z,100284.59
2023-04-17T09:56:44.966Z,100274.19
2023-04-17T09:59:13.582Z,100275.38
2023-04-17T10:01:42.774Z,100283.63
2023-04-17T10:04:12.111Z,100275.72
2023-04-17T10:06:40.228Z,100284.00
2023-04-17T10:09:08.731Z,100279.75
2023-04-17T10:11:41.941Z,100278.44
2023-04-17T10:14:14.822Z,100275.44
2023-04-17T10:16:48.012Z,100276.69
2023-04-17T10:19:33.252Z,100276.72
2023-04-17T10:22:16.348Z,100273.03
2023-04-17T10:24:44.927Z,100261.34
2023-04-17T10:27:31.247Z,100266.28
2023-04-17T10:30:01.061Z,100261.66
2023-04-17T10:32:38.168Z,100265.38
2023-04-17T10:35:30.932Z,100258.06
2023-04-17T10:38:07.067Z,100257.19
2023-04-17T10:40:40.697Z,100259.88
2023-04-17T10:43:11.854Z,100257.00
2023-04-17T10:46:00.667Z,100255.28
2023-04-17T10:48:50.081Z,100241.41
2023-04-17T10:51:24.347Z,100237.66
2023-04-17T10:53:58.823Z,100239.19
2023-04-17T10:56:33.671Z,100241.94
2023-04-17T10:59:06.456Z,100246.25
2023-04-17T11:01:58.588Z,100259.56
2023-04-17T11:04:29.439Z,100258.03
2023-04-17T11:06:57.064Z,100253.28
2023-04-17T11:09:30.000Z,100256.53
2023-04-17T11:12:04.163Z,100259.19
2023-04-17T11:14:31.690Z,100258.94
2023-04-17T11:16:58.832Z,100259.97
2023-04-17T11:19:26.684Z,100257.78
2023-04-17T11:22:02.139Z,100257.31
2023-04-17T11:24:31.128Z,100249.78
2023-04-17T11:27:00.208Z,100249.72
2023-04-17T11:29:28.320Z,100250.13
2023-04-17T11:31:57.366Z,100250.50
2023-04-17T11:34:27.594Z,100243.13
2023-04-17T11:36:59.609Z,100245.38
2023-04-17T11:39:32.514Z,100239.75
2023-04-17T11:42:02.651Z,100235.16
2023-04-17T11:44:30.267Z,100233.78
2023-04-17T11:47:01.488Z,100232.44
2023-04-17T11:49:32.969Z,100228.38
2023-04-17T11:52:05.469Z,100236.19
2023-04-17T11:54:39.906Z,100227.66
2023-04-17T11:57:15.240Z,100227.59
2023-04-17T11:59:43.105Z,100241.19
2023-04-17T12:02:10.117Z,100229.72
2023-04-17T12:04:40.038Z,100233.75
2023-04-17T12:07:09.411Z,100235.44
2023-04-17T12:09:37.323Z,100222.44
2023-04-17T12:12:07.414Z,100229.81
2023-04-17T12:14:34.977Z,100231.41
2023-04-17T12:17:02.286Z,100236.88
2023-04-17T12:19:32.273Z,100235.69
2023-04-17T12:21:59.943Z,100228.22
2023-04-17T12:24:28.564Z,100227.22
2023-04-17T12:26:56.458Z,100229.59
2023-04-17T12:29:36.224Z,100226.41
2023-04-17T12:32:11.247Z,100226.00
2023-04-17T12:34:38.592Z,100225.81
2023-04-17T12:37:05.962Z,100221.72
2023-04-17T12:39:33.389Z,100221.72
2023-04-17T12:42:01.130Z,100218.22
2023-04-17T12:44:28.619Z,100222.16
2023-04-17T12:46:56.557Z,100212.59
2023-04-17T12:49:24.125Z,100222.97
2023-04-17T12:51:51.934Z,100214.66
2023-04-17T12:54:19.603Z,100221.53
2023-04-17T12:56:47.175Z,100219.66
2023-04-17T12:59:14.389Z,100218.25
2023-04-17T13:01:42.826Z,100211.56
2023-04-17T13:04:10.010Z,100216.34
2023-04-17T13:06:36.815Z,100211.38
2023-04-17T13:09:05.160Z,100211.22
2023-04-17T13:11:32.541Z,100209.69
2023-04-17T13:13:59.825Z,100208.34
2023-04-17T13:16:27.145Z,100203.75
2023-04-17T13:18:54.656Z,100205.44
2023-04-17T13:21:21.599Z,100198.59
2023-04-17T13:23:48.923Z,100203.06
2023-04-17T13:26:16.385Z,100199.63
2023-04-17T13:28:43.480Z,100201.25
2023-04-17T13:31:11.137Z,100206.38
2023-04-17T13:33:40.558Z,100201.59
2023-04-17T13:36:07.852Z,100202.06
2023-04-17T13:38:35.007Z,100196.19
2023-04-17T13:41:02.489Z,100206.59
2023-04-17T13:43:29.618Z,100204.16
2023-04-17T13:45:57.285Z,100202.44
2023-04-17T13:48:24.440Z,100207.75
2023-04-17T13:50:51.430Z,100193.06
2023-04-17T13:53:20.068Z,100195.84
2023-04-17T13:55:48.529Z,100203.13
2023-04-17T13:58:16.120Z,100199.16
2023-04-17T14:00:43.619Z,100194.41
2023-04-17T14:03:11.247Z,100194.47
2023-04-17T14:05:38.180Z,100195.50
2023-04-17T14:08:05.834Z,100190.13
2023-04-17T14:10:35.177Z,100193.09
2023-04-17T14:13:02.754Z,100183.22
2023-04-17T14:15:30.154Z,100193.75
2023-04-17T14:17:57.874Z,100191.97
2023-04-17T14:20:25.515Z,100190.66
2023-04-17T14:22:56.144Z,100192.56
2023-04-17T14:25:23.215Z,100195.81
2023-04-17T14:27:52.199Z,100190.97
2023-04-17T14:30:19.725Z,100193.53
2023-04-17T14:32:47.424Z,100187.19
2023-04-17T14:35:14.972Z,100180.03
2023-04-17T14:37:42.576Z,100186.66
2023-04-17T14:40:09.868Z,100180.66
2023-04-17T14:42:47.374Z,100182.88
2023-04-17T14:45:18.455Z,100181.13
2023-04-17T14:47:45.905Z,100183.22
2023-04-17T14:50:13.393Z,100185.13
2023-04-17T14:52:40.595Z,100174.44
2023-04-17T14:55:08.929Z,100175.91
2023-04-17T14:57:36.836Z,100179.91
2023-04-17T15:00:04.687Z,100176.69
2023-04-17T15:02:39.032Z,100186.25
2023-04-17T15:05:07.726Z,100177.38
2023-04-17T15:07:35.121Z,100181.28
2023-04-17T15:10:02.573Z,100174.81
2023-04-17T15:12:29.614Z,100166.28
2023-04-17T15:14:56.659Z,100161.03
2023-04-17T15:17:23.993Z,100172.66
2023-04-17T15:19:50.986Z,100175.91
2023-04-17T15:22:18.331Z,100171.50
2023-04-17T15:24:45.883Z,100171.88
2023-04-17T15:27:12.710Z,100172.88
2023-04-17T15:29:40.028Z,100178.81
2023-04-17T15:32:07.173Z,100171.25
2023-04-17T15:34:35.193Z,100171.78
2023-04-17T15:37:02.085Z,100168.25
2023-04-17T15:39:29.293Z,100174.25
2023-04-17T15:41:57.676Z,100174.50
2023-04-17T15:44:24.735Z,100175.03
2023-04-17T15:46:52.585Z,100179.34
2023-04-17T15:49:20.049Z,100171.09
2023-04-17T15:51:47.458Z,100170.47
2023-04-17T15:54:14.537Z,100162.66
2023-04-17T15:56:41.821Z,100175.72
2023-04-17T15:59:09.540Z,100174.47
2023-04-17T16:01:36.615Z,100174.94
2023-04-17T16:04:04.429Z,100178.34
2023-04-17T16:06:31.504Z,100185.91
2023-04-17T16:08:59.098Z,100188.13
2023-04-17T16:11:28.263Z,100186.75
2023-04-17T16:13:55.930Z,100192.56
2023-04-17T16:16:23.429Z,100188.88
2023-04-17T16:18:51.332Z,100183.22
2023-04-17T16:21:21.137Z,100198.50
2023-04-17T16:23:50.113Z,100191.09
2023-04-17T16:26:17.321Z,100195.88
2023-04-17T16:28:46.104Z,100193.56
2023-04-17T16:31:16.928Z,100194.50
2023-04-17T16:33:45.015Z,100204.94
2023-04-17T16:36:12.157Z,100196.53
2023-04-17T16:38:39.477Z,100197.56
2023-04-17T16:41:07.027Z,100198.84
2023-04-17T16:43:34.205Z,100203.84
2023-04-17T16:46:11.017Z,100206.91
2023-04-17T16:48:41.906Z,100203.66
2023-04-17T16:51:09.475Z,100199.97
2023-04-17T16:53:36.328Z,100196.25
2023-04-17T16:56:06.803Z,100205.28
2023-04-17T16:58:34.308Z,100202.41
2023-04-17T17:01:01.799Z,100210.19
2023-04-17T17:03:29.246Z,100202.53
2023-04-17T17:05:57.847Z,100205.78
2023-04-17T17:08:25.072Z,100211.78
2023-04-17T17:10:52.075Z,100204.19
2023-04-17T17:13:19.338Z,100204.41
2023-04-17T17:15:46.654Z,100216.19
2023-04-17T17:18:13.925Z,100217.44
2023-04-17T17:20:41.445Z,100212.91
2023-04-17T17:23:08.670Z,100220.16
2023-04-17T17:25:36.142Z,100218.69
2023-04-17T17:28:03.448Z,100223.13
2023-04-17T17:30:30.289Z,100226.84
2023-04-17T17:32:57.570Z,100229.69
2023-04-17T17:35:25.018Z,100225.69
2023-04-17T17:37:52.800Z,100228.06
2023-04-17T17:40:19.625Z,100232.88
2023-04-17T17:42:48.094Z,100225.00
2023-04-17T17:45:15.355Z,100237.56
2023-04-17T17:47:42.713Z,100237.72
2023-04-17T17:50:10.250Z,100233.28
2023-04-17T17:52:37.763Z,100228.03
2023-04-17T17:55:05.556Z,100228.22
2023-04-17T17:57:45.685Z,100233.38
2023-04-17T18:00:17.003Z,100235.03
2023-04-17T18:02:44.683Z,100234.19
2023-04-17T18:05:12.074Z,100229.94
2023-04-17T18:07:41.104Z,100230.03
2023-04-17T18:10:08.649Z,100225.00
2023-04-17T18:12:35.529Z,100228.28
2023-04-17T18:15:02.799Z,100227.69
2023-04-17T18:17:30.273Z,100224.09
2023-04-17T18:19:57.561Z,100226.66
2023-04-17T18:22:24.940Z,100221.50
2023-04-17T18:24:56.378Z,100221.66
2023-04-17T18:27:23.978Z,100225.84
2023-04-17T18:29:51.496Z,100219.66
2023-04-17T18:32:19.049Z,100218.09
2023-04-17T18:34:49.323Z,100210.81
2023-04-17T18:37:18.311Z,100221.41
2023-04-17T18:39:45.661Z,100216.81
2023-04-17T18:42:12.477Z,100216.88
2023-04-17T18:44:40.091Z,100216.97
2023-04-17T18:47:07.409Z,100216.91
2023-04-17T18:49:34.932Z,100213.56
2023-04-17T18:52:03.447Z,100212.56
2023-04-17T18:54:30.706Z,100215.16
2023-04-17T18:56:58.334Z,100217.06
2023-04-17T18:59:28.073Z,100200.03
2023-04-17T19:01:55.156Z,100195.50
2023-04-17T19:04:22.407Z,100198.25
2023-04-17T19:06:49.651Z,100202.75
2023-04-17T19:09:16.587Z,100209.09
2023-04-17T19:11:43.477Z,100192.22
2023-04-17T19:14:10.705Z,100202.44
2023-04-17T19:16:37.619Z,100202.53
2023-04-17T19:19:05.865Z,100198.16
2023-04-17T19:21:33.233Z,100192.06
2023-04-17T19:24:00.773Z,100190.97
2023-04-17T19:26:27.734Z,100190.00
2023-04-17T19:28:55.210Z,100189.78
2023-04-17T19:31:22.252Z,100191.06
2023-04-17T19:33:48.984Z,100185.28
2023-04-17T19:36:16.107Z,100180.78
2023-04-17T19:38:44.061Z,100176.28
2023-04-17T19:41:15.045Z,100176.38
2023-04-17T19:43:42.840Z,100181.63
2023-04-17T19:46:10.633Z,100180.78
2023-04-17T19:48:38.279Z,100173.31
2023-04-17T19:51:08.764Z,100177.19
2023-04-17T19:53:37.870Z,100174.75
2023-04-17T19:56:08.326Z,100176.38
2023-04-17T19:58:37.124Z,100175.16
2023-04-17T20:01:04.883Z,100169.91
2023-04-17T20:03:33.181Z,100167.25
2023-04-17T20:06:00.787Z,100171.00
2023-04-17T20:08:27.920Z,100170.41
2023-04-17T20:10:55.319Z,100166.88
2023-04-17T20:13:23.013Z,100169.94
2023-04-17T20:15:50.786Z,100165.69
2023-04-17T20:18:18.488Z,100166.47
2023-04-17T20:20:45.877Z,100160.81
2023-04-17T20:23:12.764Z,100161.84
2023-04-17T20:25:40.031Z,100160.06
2023-04-17T20:28:07.515Z,100155.06
2023-04-17T20:30:34.932Z,100155.25
2023-04-17T20:33:02.905Z,100149.09
2023-04-17T20:35:30.580Z,100151.97
2023-04-17T20:37:57.943Z,100141.69
2023-04-17T20:40:25.446Z,100140.09
2023-04-17T20:42:53.279Z,100144.47
2023-04-17T20:45:21.014Z,100135.97
2023-04-17T20:50:18.355Z,100131.50
2023-04-17T20:52:45.702Z,100131.41
2023-04-17T20:55:13.194Z,100133.44
2023-04-17T20:57:40.134Z,100133.53
2023-04-17T21:00:08.371Z,100132.63
2023-04-17T21:02:35.669Z,100132.53
2023-04-17T21:05:02.952Z,100132.66
2023-04-17T21:07:31.207Z,100128.19
2023-04-17T21:09:58.389Z,100128.34
2023-04-17T21:12:25.635Z,100119.31
2023-04-17T21:14:52.838Z,100129.25
2023-04-17T21:17:20.240Z,100114.38
2023-04-17T21:19:47.656Z,100123.94
2023-04-17T21:22:14.756Z,100112.66
2023-04-17T21:24:42.470Z,100118.06
2023-04-17T21:27:10.684Z,100116.38
2023-04-17T21:29:37.783Z,100110.06
2023-04-17T21:32:04.999Z,100108.41
2023-04-17T21:34:34.117Z,100109.63
2023-04-17T21:37:05.044Z,100107.53
2023-04-17T21:39:33.269Z,100110.16
2023-04-17T21:42:02.180Z,100103.06
2023-04-17T21:44:29.083Z,100097.78
2023-04-17T21:46:56.408Z,100107.69
2023-04-17T21:49:23.882Z,100098.97
2023-04-17T21:51:52.137Z,100105.91
2023-04-17T21:54:19.274Z,100104.03
2023-04-17T21:56:46.477Z,100098.91
2023-04-17T21:59:13.308Z,100097.19
2023-04-17T22:01:40.717Z,100096.25
2023-04-17T22:04:07.909Z,100091.16
2023-04-17T22:06:38.418Z,100095.31
2023-04-17T22:09:05.939Z,100087.44
2023-04-17T22:11:34.703Z,100084.03
2023-04-17T22:14:02.045Z,100091.63
2023-04-17T22:16:29.789Z,100087.31
2023-04-17T22:18:57.107Z,100084.38
2023-04-17T22:21:24.068Z,100081.06
2023-04-17T22:23:50.906Z,100083.41
2023-04-17T22:26:18.136Z,100086.25
2023-04-17T22:28:45.279Z,100075.94
2023-04-17T22:31:15.822Z,100086.31
2023-04-17T22:33:43.364Z,100083.94
2023-04-17T22:36:11.038Z,100082.06
2023-04-17T22:38:37.974Z,100081.13
2023-04-17T22:41:05.511Z,100081.50
2023-04-17T22:43:32.866Z,100079.63
2023-04-17T22:46:00.261Z,100077.16
2023-04-17T22:48:28.462Z,100076.31
2023-04-17T22:50:56.556Z,100075.50
2023-04-17T22:53:24.013Z,100077.06
2023-04-17T22:56:04.547Z,100072.91
2023-04-17T22:58:33.835Z,100068.44
2023-04-17T23:01:01.254Z,100063.16
2023-04-17T23:03:28.830Z,100063.38
2023-04-17T23:05:56.952Z,100072.94
2023-04-17T23:08:24.246Z,100065.25
2023-04-17T23:11:01.715Z,100067.03
2023-04-17T23:13:30.947Z,100067.19
2023-04-17T23:15:58.380Z,100065.53
2023-04-17T23:18:25.667Z,100062.97
2023-04-17T23:20:52.741Z,100057.63
2023-04-17T23:23:21.062Z,100056.97
2023-04-17T23:25:48.097Z,100058.03
2023-04-17T23:28:15.357Z,100056.47
2023-04-17T23:30:42.838Z,100058.94
2023-04-17T23:33:10.422Z,100042.38
2023-04-17T23:35:38.092Z,100055.53
2023-04-17T23:38:05.596Z,100044.31
2023-04-17T23:40:34.770Z,100046.09
2023-04-17T23:43:01.587Z,100051.25
2023-04-17T23:45:28.670Z,100048.78
2023-04-17T23:47:55.801Z,100041.84
2023-04-17T23:50:23.038Z,100037.28
2023-04-17T23:52:50.571Z,100045.97
2023-04-17T23:55:18.069Z,100042.56
2023-04-17T23:57:45.651Z,100033.97
